Terminal Aerodrome Forecast
Issued by NWS Duluth, MN

Home | Current Version | Previous Version | Text Only | Print | Product List | Glossary On
Versions: 1 2 3 4 5 6 7 8 9 10 11 12 13 14 15 16 17 18 19 20 21 22 23 24
000
FTUS43 KDLH 211100 RRA
TAFINL
TAF
KINL 211141Z 2112/2212 23006KT P6SM BKN080
     FM211300 29014KT P6SM SCT015 BKN035
     FM211500 30015G22KT P6SM BKN015
     FM212100 32016G22KT P6SM SCT025 BKN035
     FM220200 33008KT P6SM SKC=

USA.gov is the U.S. government's official web portal to all federal, state and local government web resources and services.